createdAt,value
2018-06-17T00:02:30.101Z,13.53
2018-06-17T00:07:21.724Z,13.60
2018-06-17T00:12:12.606Z,13.30
2018-06-17T00:17:03.526Z,12.77
2018-06-17T00:21:54.468Z,13.50
2018-06-17T00:26:45.377Z,13.83
2018-06-17T00:31:36.280Z,12.30
2018-06-17T00:36:27.201Z,12.80
2018-06-17T00:41:18.119Z,13.33
2018-06-17T00:46:09.021Z,12.40
2018-06-17T00:50:59.910Z,13.60
2018-06-17T00:55:51.552Z,13.33
2018-06-17T01:00:43.182Z,13.03
2018-06-17T01:05:34.878Z,12.63
2018-06-17T01:10:25.782Z,12.90
2018-06-17T01:15:16.697Z,12.90
2018-06-17T01:20:07.627Z,12.50
2018-06-17T01:24:58.506Z,12.57
2018-06-17T01:29:49.407Z,13.63
2018-06-17T01:34:41.045Z,13.87
2018-06-17T01:39:32.688Z,13.33
2018-06-17T01:44:24.382Z,13.43
2018-06-17T01:49:15.262Z,12.93
2018-06-17T01:54:06.200Z,13.00
2018-06-17T01:58:57.090Z,13.10
2018-06-17T02:03:47.993Z,13.67
2018-06-17T02:08:45.742Z,13.53
2018-06-17T02:13:36.642Z,12.87
2018-06-17T02:18:27.539Z,12.90
2018-06-17T02:23:18.419Z,12.87
2018-06-17T02:28:10.062Z,12.23
2018-06-17T02:33:00.972Z,12.30
2018-06-17T02:37:52.614Z,13.80
2018-06-17T02:42:43.515Z,12.43
2018-06-17T02:47:53.404Z,12.50
2018-06-17T02:58:07.002Z,11.82
2018-06-17T03:02:57.911Z,12.73
2018-06-17T03:07:48.813Z,12.50
2018-06-17T03:12:39.726Z,12.40
2018-06-17T03:17:31.383Z,12.50
2018-06-17T03:22:22.330Z,12.70
2018-06-17T03:32:47.077Z,12.00
2018-06-17T03:37:37.980Z,12.90
2018-06-17T03:42:28.902Z,12.77
2018-06-17T03:47:19.796Z,12.83
2018-06-17T03:52:10.693Z,11.63
2018-06-17T03:57:02.320Z,12.20
2018-06-17T04:01:53.299Z,12.23
2018-06-17T04:06:44.193Z,11.67
2018-06-17T04:11:35.087Z,12.27
2018-06-17T04:16:26.727Z,12.30
2018-06-17T04:21:18.378Z,12.33
2018-06-17T04:26:09.271Z,12.00
2018-06-17T04:31:00.902Z,12.40
2018-06-17T04:35:52.534Z,12.17
2018-06-17T04:40:43.453Z,11.47
2018-06-17T04:45:35.113Z,12.10
2018-06-17T04:50:26.080Z,11.03
2018-06-17T04:55:16.967Z,11.87
2018-06-17T05:00:07.860Z,11.77
2018-06-17T05:04:59.559Z,11.23
2018-06-17T05:09:50.472Z,10.53
2018-06-17T05:14:41.447Z,11.00
2018-06-17T05:19:32.333Z,11.73
2018-06-17T05:24:23.252Z,11.70
2018-06-17T05:29:14.140Z,11.80
2018-06-17T05:34:05.047Z,11.63
2018-06-17T05:38:55.966Z,10.73
2018-06-17T05:43:46.865Z,11.50
2018-06-17T05:48:37.756Z,10.57
2018-06-17T05:53:29.428Z,11.40
2018-06-17T05:58:20.314Z,11.30
2018-06-17T06:03:11.973Z,10.30
2018-06-17T06:08:02.911Z,10.63
2018-06-17T06:12:53.826Z,10.53
2018-06-17T06:17:44.722Z,10.07
2018-06-17T06:22:35.680Z,10.03
2018-06-17T06:27:26.579Z,9.33
2018-06-17T06:32:17.480Z,9.90
2018-06-17T06:37:08.425Z,9.83
2018-06-17T06:41:59.315Z,9.70
2018-06-17T06:46:50.198Z,10.03
2018-06-17T06:51:41.830Z,10.07
2018-06-17T06:56:32.733Z,9.20
2018-06-17T07:01:23.817Z,9.17
2018-06-17T07:11:40.542Z,9.25
2018-06-17T07:16:44.836Z,8.40
2018-06-17T07:21:35.686Z,7.73
2018-06-17T07:26:39.930Z,7.97
2018-06-17T07:31:31.457Z,7.70
2018-06-17T07:36:22.371Z,7.60
2018-06-17T07:41:14.071Z,8.00
2018-06-17T07:46:04.973Z,7.87
2018-06-17T07:51:08.361Z,7.50
2018-06-17T07:55:59.258Z,7.17
2018-06-17T08:00:50.876Z,7.30
2018-06-17T08:05:42.524Z,6.40
2018-06-17T08:10:34.165Z,5.80
2018-06-17T08:15:25.802Z,6.70
2018-06-17T08:20:17.510Z,6.10
2018-06-17T08:25:08.416Z,5.70
2018-06-17T08:29:59.447Z,6.00
2018-06-17T08:34:50.342Z,5.60
2018-06-17T08:39:41.230Z,5.30
2018-06-17T08:44:32.221Z,4.73
2018-06-17T08:49:23.862Z,4.50
2018-06-17T08:54:15.579Z,4.83
2018-06-17T08:59:06.532Z,4.53
2018-06-17T09:03:58.392Z,5.60
2018-06-17T09:08:49.356Z,4.80
2018-06-17T09:13:40.374Z,4.00
2018-06-17T09:18:31.280Z,4.13
2018-06-17T09:23:22.170Z,4.40
2018-06-17T09:28:13.076Z,4.27
2018-06-17T09:33:04.034Z,3.90
2018-06-17T09:37:54.996Z,4.20
2018-06-17T09:42:45.843Z,3.93
2018-06-17T09:47:36.727Z,3.30
2018-06-17T09:52:27.740Z,3.50
2018-06-17T09:57:19.392Z,3.40
2018-06-17T10:02:11.018Z,3.50
2018-06-17T10:07:02.706Z,3.40
2018-06-17T10:11:53.687Z,3.20
2018-06-17T10:16:45.382Z,3.73
2018-06-17T10:21:36.278Z,4.00
2018-06-17T10:26:27.204Z,3.50
2018-06-17T10:31:18.271Z,3.47
2018-06-17T10:36:09.910Z,3.70
2018-06-17T10:41:01.544Z,3.60
2018-06-17T10:45:53.417Z,3.53
2018-06-17T10:50:44.326Z,4.30
2018-06-17T10:55:35.342Z,4.13
2018-06-17T11:00:26.390Z,4.00
2018-06-17T11:05:17.420Z,4.10
2018-06-17T11:10:08.320Z,4.43
2018-06-17T11:14:59.255Z,4.20
2018-06-17T11:19:50.162Z,4.57
2018-06-17T11:24:41.065Z,4.07
2018-06-17T11:29:32.041Z,3.70
2018-06-17T11:34:22.954Z,4.30
2018-06-17T11:39:13.971Z,4.07
2018-06-17T11:44:04.819Z,5.10
2018-06-17T11:48:56.515Z,4.47
2018-06-17T11:53:47.459Z,4.60
2018-06-17T11:58:38.466Z,5.17
2018-06-17T12:03:29.385Z,5.30
2018-06-17T12:08:20.292Z,4.47
2018-06-17T12:13:11.343Z,5.40
2018-06-17T12:18:03.047Z,4.40
2018-06-17T12:22:54.575Z,4.70
2018-06-17T12:27:46.561Z,5.00
2018-06-17T12:32:37.539Z,4.77
2018-06-17T12:37:28.481Z,5.40
2018-06-17T12:42:19.490Z,5.30
2018-06-17T12:47:10.407Z,4.97
2018-06-17T12:52:01.341Z,5.30
2018-06-17T12:56:52.243Z,5.00
2018-06-17T13:01:43.137Z,4.47
2018-06-17T13:06:34.022Z,4.33
2018-06-17T13:11:25.724Z,4.03
2018-06-17T13:16:16.667Z,4.60
2018-06-17T13:21:07.651Z,4.20
2018-06-17T13:25:59.400Z,5.13
2018-06-17T13:30:50.304Z,4.80
2018-06-17T13:35:41.241Z,5.00
2018-06-17T13:40:32.135Z,5.40
2018-06-17T13:45:23.106Z,4.97
2018-06-17T13:50:14.801Z,4.50
2018-06-17T13:55:05.722Z,4.83
2018-06-17T13:59:56.628Z,4.70
2018-06-17T14:04:47.537Z,4.70
2018-06-17T14:09:38.488Z,4.80
2018-06-17T14:14:29.401Z,4.80
2018-06-17T14:19:20.296Z,4.80
2018-06-17T14:24:11.183Z,3.80
2018-06-17T14:29:02.819Z,3.63
2018-06-17T14:33:53.727Z,3.33
2018-06-17T14:38:45.355Z,3.27
2018-06-17T14:49:14.705Z,3.30
2018-06-17T14:54:06.343Z,2.93
2018-06-17T14:58:58.003Z,3.37
2018-06-17T15:03:48.972Z,2.20
2018-06-17T15:08:39.873Z,2.43
2018-06-17T15:13:30.799Z,2.33
2018-06-17T15:18:21.713Z,2.13
2018-06-17T15:23:12.638Z,2.60
2018-06-17T15:28:03.555Z,2.47
2018-06-17T15:33:14.365Z,1.80
2018-06-17T15:43:27.998Z,2.10
2018-06-17T15:48:18.908Z,2.10
2018-06-17T15:53:09.799Z,2.40
2018-06-17T15:58:01.435Z,1.77
2018-06-17T16:02:53.075Z,1.57
2018-06-17T16:07:44.716Z,1.63
2018-06-17T16:12:35.607Z,1.53
2018-06-17T16:17:45.337Z,1.43
2018-06-17T16:22:36.227Z,1.43
2018-06-17T16:27:27.114Z,1.27
2018-06-17T16:32:18.763Z,1.40
2018-06-17T16:37:09.659Z,1.37
2018-06-17T16:42:00.550Z,1.50
2018-06-17T16:46:52.175Z,1.30
2018-06-17T16:51:43.325Z,1.30
2018-06-17T16:56:40.523Z,1.57
2018-06-17T17:01:32.165Z,1.10
2018-06-17T17:06:23.136Z,2.00
2018-06-17T17:11:14.031Z,1.23
2018-06-17T17:16:04.945Z,1.60
2018-06-17T17:20:55.847Z,1.53
2018-06-17T17:25:46.748Z,1.57
2018-06-17T17:30:38.397Z,1.43
2018-06-17T17:40:47.990Z,1.70
2018-06-17T17:45:38.892Z,1.73
2018-06-17T17:50:30.626Z,2.10
2018-06-17T17:55:22.325Z,1.80
2018-06-17T18:00:20.362Z,2.13
2018-06-17T18:05:11.275Z,2.10
2018-06-17T18:10:02.317Z,2.10
2018-06-17T18:14:53.225Z,1.97
2018-06-17T18:19:44.132Z,2.10
2018-06-17T18:24:35.044Z,2.03
2018-06-17T18:29:42.616Z,2.00
2018-06-17T18:34:51.508Z,2.13
2018-06-17T18:39:42.409Z,2.30
2018-06-17T18:44:34.100Z,2.20
2018-06-17T18:49:24.986Z,2.60
2018-06-17T18:54:15.949Z,2.27
2018-06-17T18:59:07.016Z,3.00
2018-06-17T19:03:57.945Z,2.60
2018-06-17T19:08:49.009Z,2.50
2018-06-17T19:13:56.909Z,2.63
2018-06-17T19:18:47.930Z,2.23
2018-06-17T19:23:39.713Z,2.07
2018-06-17T19:28:31.356Z,2.90
2018-06-17T19:33:23.056Z,2.30
2018-06-17T19:38:13.960Z,2.10
2018-06-17T19:43:04.904Z,3.43
2018-06-17T19:47:55.913Z,2.30
2018-06-17T19:53:04.848Z,2.77
2018-06-17T19:58:11.711Z,2.40
2018-06-17T20:03:02.606Z,2.63
2018-06-17T20:07:54.283Z,2.63
2018-06-17T20:12:45.181Z,2.30
2018-06-17T20:17:36.156Z,3.13
2018-06-17T20:22:27.096Z,2.40
2018-06-17T20:27:18.809Z,2.70
2018-06-17T20:32:09.718Z,3.07
2018-06-17T20:37:15.622Z,3.17
2018-06-17T20:42:13.690Z,2.97
2018-06-17T20:47:04.539Z,3.20
2018-06-17T20:51:56.693Z,3.30
2018-06-17T20:56:47.689Z,2.93
2018-06-17T21:01:38.707Z,2.93
2018-06-17T21:06:29.695Z,3.47
2018-06-17T21:11:20.660Z,2.73
2018-06-17T21:16:12.301Z,3.43
2018-06-17T21:21:22.876Z,3.57
2018-06-17T21:26:20.859Z,3.53
2018-06-17T21:31:12.568Z,3.77
2018-06-17T21:36:03.527Z,3.93
2018-06-17T21:40:55.225Z,3.30
2018-06-17T21:45:47.607Z,4.40
2018-06-17T21:50:39.305Z,3.77
2018-06-17T21:55:30.211Z,3.87
2018-06-17T22:00:21.099Z,5.13
2018-06-17T22:05:12.058Z,3.30
2018-06-17T22:15:42.584Z,3.10
2018-06-17T22:20:34.248Z,3.57
2018-06-17T22:25:25.192Z,4.03
2018-06-17T22:30:16.121Z,3.97
2018-06-17T22:35:07.030Z,3.47
2018-06-17T22:39:57.949Z,3.40
2018-06-17T22:44:48.861Z,3.20
2018-06-17T22:49:39.787Z,3.67
2018-06-17T22:54:43.188Z,3.33
2018-06-17T22:59:49.914Z,3.70
2018-06-17T23:10:00.295Z,3.20
2018-06-17T23:14:51.185Z,3.53
2018-06-17T23:19:42.141Z,4.17
2018-06-17T23:24:33.202Z,3.50
2018-06-17T23:29:24.887Z,3.47
2018-06-17T23:34:15.795Z,3.80
2018-06-17T23:39:06.711Z,3.70
2018-06-17T23:43:57.632Z,3.60
2018-06-17T23:49:03.526Z,3.80
2018-06-17T23:54:09.442Z,3.33
2018-06-17T23:59:00.372Z,3.87
